sensor_id;sensor_type;location;lat;lon;timestamp;P1;durP1;ratioP1;P2;durP2;ratioP2
54123;SDS011;55741;53.252;5.788;2023-12-29T00:01:57;35.60;;;6.28;;
54123;SDS011;55741;53.252;5.788;2023-12-29T00:04:25;37.47;;;7.85;;
54123;SDS011;55741;53.252;5.788;2023-12-29T00:06:51;40.90;;;6.13;;
54123;SDS011;55741;53.252;5.788;2023-12-29T00:09:17;30.35;;;6.50;;
54123;SDS011;55741;53.252;5.788;2023-12-29T00:11:49;52.97;;;8.73;;
54123;SDS011;55741;53.252;5.788;2023-12-29T00:14:16;40.03;;;7.25;;
54123;SDS011;55741;53.252;5.788;2023-12-29T00:16:42;26.30;;;5.00;;
54123;SDS011;55741;53.252;5.788;2023-12-29T00:19:09;34.72;;;7.18;;
54123;SDS011;55741;53.252;5.788;2023-12-29T00:21:38;45.67;;;8.77;;
54123;SDS011;55741;53.252;5.788;2023-12-29T00:24:04;40.13;;;7.85;;
54123;SDS011;55741;53.252;5.788;2023-12-29T00:26:30;38.35;;;8.07;;
54123;SDS011;55741;53.252;5.788;2023-12-29T00:28:57;45.00;;;7.43;;
54123;SDS011;55741;53.252;5.788;2023-12-29T00:31:23;39.08;;;7.05;;
54123;SDS011;55741;53.252;5.788;2023-12-29T00:33:49;35.58;;;6.78;;
54123;SDS011;55741;53.252;5.788;2023-12-29T00:36:17;41.05;;;7.65;;
54123;SDS011;55741;53.252;5.788;2023-12-29T00:38:45;48.60;;;7.70;;
54123;SDS011;55741;53.252;5.788;2023-12-29T00:41:11;37.63;;;6.13;;
54123;SDS011;55741;53.252;5.788;2023-12-29T00:43:37;33.42;;;7.15;;
54123;SDS011;55741;53.252;5.788;2023-12-29T00:46:05;33.88;;;7.00;;
54123;SDS011;55741;53.252;5.788;2023-12-29T00:48:31;43.45;;;5.95;;
54123;SDS011;55741;53.252;5.788;2023-12-29T00:50:57;35.05;;;6.45;;
54123;SDS011;55741;53.252;5.788;2023-12-29T00:53:23;35.38;;;6.05;;
54123;SDS011;55741;53.252;5.788;2023-12-29T00:55:49;37.00;;;6.60;;
54123;SDS011;55741;53.252;5.788;2023-12-29T00:58:35;29.23;;;6.90;;
54123;SDS011;55741;53.252;5.788;2023-12-29T01:01:01;31.98;;;6.22;;
54123;SDS011;55741;53.252;5.788;2023-12-29T01:03:27;39.67;;;7.28;;
54123;SDS011;55741;53.252;5.788;2023-12-29T01:05:52;33.08;;;6.28;;
54123;SDS011;55741;53.252;5.788;2023-12-29T01:08:18;30.15;;;6.55;;
54123;SDS011;55741;53.252;5.788;2023-12-29T01:10:44;34.55;;;6.43;;
54123;SDS011;55741;53.252;5.788;2023-12-29T01:13:10;32.25;;;6.50;;
54123;SDS011;55741;53.252;5.788;2023-12-29T01:15:36;26.75;;;5.47;;
54123;SDS011;55741;53.252;5.788;2023-12-29T01:18:02;35.40;;;6.53;;
54123;SDS011;55741;53.252;5.788;2023-12-29T01:20:29;32.75;;;5.53;;
54123;SDS011;55741;53.252;5.788;2023-12-29T01:23:14;33.00;;;5.93;;
54123;SDS011;55741;53.252;5.788;2023-12-29T01:26:00;26.80;;;5.40;;
54123;SDS011;55741;53.252;5.788;2023-12-29T01:28:26;42.17;;;6.80;;
54123;SDS011;55741;53.252;5.788;2023-12-29T01:31:12;36.72;;;5.97;;
54123;SDS011;55741;53.252;5.788;2023-12-29T01:33:38;40.05;;;7.13;;
54123;SDS011;55741;53.252;5.788;2023-12-29T01:36:04;31.35;;;6.15;;
54123;SDS011;55741;53.252;5.788;2023-12-29T01:38:31;40.17;;;7.15;;
54123;SDS011;55741;53.252;5.788;2023-12-29T01:40:57;36.53;;;6.75;;
54123;SDS011;55741;53.252;5.788;2023-12-29T01:43:23;40.47;;;6.95;;
54123;SDS011;55741;53.252;5.788;2023-12-29T01:45:49;33.60;;;5.82;;
54123;SDS011;55741;53.252;5.788;2023-12-29T01:48:16;25.98;;;5.10;;
54123;SDS011;55741;53.252;5.788;2023-12-29T01:50:42;35.63;;;6.95;;
54123;SDS011;55741;53.252;5.788;2023-12-29T01:53:09;29.83;;;5.07;;
54123;SDS011;55741;53.252;5.788;2023-12-29T01:55:36;26.92;;;6.10;;
54123;SDS011;55741;53.252;5.788;2023-12-29T01:58:03;30.00;;;6.00;;
54123;SDS011;55741;53.252;5.788;2023-12-29T02:00:29;37.00;;;5.78;;
54123;SDS011;55741;53.252;5.788;2023-12-29T02:02:57;39.45;;;7.28;;
54123;SDS011;55741;53.252;5.788;2023-12-29T02:05:23;32.00;;;6.25;;
54123;SDS011;55741;53.252;5.788;2023-12-29T02:07:52;35.90;;;7.25;;
54123;SDS011;55741;53.252;5.788;2023-12-29T02:10:19;37.78;;;6.80;;
54123;SDS011;55741;53.252;5.788;2023-12-29T02:12:46;38.95;;;6.22;;
54123;SDS011;55741;53.252;5.788;2023-12-29T02:15:14;35.03;;;6.60;;
54123;SDS011;55741;53.252;5.788;2023-12-29T02:17:45;31.38;;;7.25;;
54123;SDS011;55741;53.252;5.788;2023-12-29T02:20:42;32.92;;;6.38;;
54123;SDS011;55741;53.252;5.788;2023-12-29T02:23:08;28.23;;;5.55;;
54123;SDS011;55741;53.252;5.788;2023-12-29T02:25:34;29.80;;;5.68;;
54123;SDS011;55741;53.252;5.788;2023-12-29T02:28:34;44.22;;;7.05;;
54123;SDS011;55741;53.252;5.788;2023-12-29T02:33:35;38.40;;;7.80;;
54123;SDS011;55741;53.252;5.788;2023-12-29T02:36:05;40.08;;;7.43;;
54123;SDS011;55741;53.252;5.788;2023-12-29T02:38:33;26.13;;;5.72;;
54123;SDS011;55741;53.252;5.788;2023-12-29T02:40:59;36.15;;;6.53;;
54123;SDS011;55741;53.252;5.788;2023-12-29T02:43:25;35.03;;;7.00;;
54123;SDS011;55741;53.252;5.788;2023-12-29T02:45:51;37.35;;;8.25;;
54123;SDS011;55741;53.252;5.788;2023-12-29T02:48:18;37.50;;;7.30;;
54123;SDS011;55741;53.252;5.788;2023-12-29T02:50:44;33.88;;;7.35;;
54123;SDS011;55741;53.252;5.788;2023-12-29T02:53:10;34.42;;;7.25;;
54123;SDS011;55741;53.252;5.788;2023-12-29T02:55:36;43.17;;;7.63;;
54123;SDS011;55741;53.252;5.788;2023-12-29T02:58:02;40.00;;;7.78;;
54123;SDS011;55741;53.252;5.788;2023-12-29T03:00:29;37.78;;;7.18;;
54123;SDS011;55741;53.252;5.788;2023-12-29T03:02:54;34.45;;;7.70;;
54123;SDS011;55741;53.252;5.788;2023-12-29T03:05:20;31.77;;;6.25;;
54123;SDS011;55741;53.252;5.788;2023-12-29T03:07:46;33.33;;;5.53;;
54123;SDS011;55741;53.252;5.788;2023-12-29T03:10:12;32.88;;;6.75;;
54123;SDS011;55741;53.252;5.788;2023-12-29T03:12:38;36.80;;;5.75;;
54123;SDS011;55741;53.252;5.788;2023-12-29T03:15:04;35.13;;;7.40;;
54123;SDS011;55741;53.252;5.788;2023-12-29T03:17:30;32.15;;;7.45;;
54123;SDS011;55741;53.252;5.788;2023-12-29T03:19:56;31.45;;;6.28;;
54123;SDS011;55741;53.252;5.788;2023-12-29T03:22:23;37.78;;;5.93;;
54123;SDS011;55741;53.252;5.788;2023-12-29T03:24:49;35.67;;;6.35;;
54123;SDS011;55741;53.252;5.788;2023-12-29T03:27:15;44.13;;;6.45;;
54123;SDS011;55741;53.252;5.788;2023-12-29T03:29:41;34.90;;;6.00;;
54123;SDS011;55741;53.252;5.788;2023-12-29T03:32:07;28.13;;;5.45;;
54123;SDS011;55741;53.252;5.788;2023-12-29T03:34:33;32.10;;;6.18;;
54123;SDS011;55741;53.252;5.788;2023-12-29T03:36:59;33.25;;;5.90;;
54123;SDS011;55741;53.252;5.788;2023-12-29T03:39:24;23.80;;;4.35;;
54123;SDS011;55741;53.252;5.788;2023-12-29T03:41:50;28.70;;;6.82;;
54123;SDS011;55741;53.252;5.788;2023-12-29T03:44:16;35.25;;;7.80;;
54123;SDS011;55741;53.252;5.788;2023-12-29T03:46:43;37.00;;;7.47;;
54123;SDS011;55741;53.252;5.788;2023-12-29T03:49:10;26.77;;;5.18;;
54123;SDS011;55741;53.252;5.788;2023-12-29T03:51:36;26.88;;;5.30;;
54123;SDS011;55741;53.252;5.788;2023-12-29T03:54:02;36.95;;;6.63;;
54123;SDS011;55741;53.252;5.788;2023-12-29T03:56:28;29.20;;;6.50;;
54123;SDS011;55741;53.252;5.788;2023-12-29T03:58:54;31.33;;;6.35;;
54123;SDS011;55741;53.252;5.788;2023-12-29T04:01:20;40.38;;;7.28;;
54123;SDS011;55741;53.252;5.788;2023-12-29T04:03:46;33.47;;;5.68;;
54123;SDS011;55741;53.252;5.788;2023-12-29T04:06:12;27.38;;;6.25;;
54123;SDS011;55741;53.252;5.788;2023-12-29T04:08:38;34.15;;;7.82;;
54123;SDS011;55741;53.252;5.788;2023-12-29T04:11:04;29.33;;;5.82;;
54123;SDS011;55741;53.252;5.788;2023-12-29T04:13:30;46.60;;;8.60;;
54123;SDS011;55741;53.252;5.788;2023-12-29T04:15:56;34.15;;;6.13;;
54123;SDS011;55741;53.252;5.788;2023-12-29T04:18:22;29.15;;;6.82;;
54123;SDS011;55741;53.252;5.788;2023-12-29T04:20:49;32.45;;;7.43;;
54123;SDS011;55741;53.252;5.788;2023-12-29T04:23:15;31.90;;;5.95;;
54123;SDS011;55741;53.252;5.788;2023-12-29T04:25:41;31.08;;;6.57;;
54123;SDS011;55741;53.252;5.788;2023-12-29T04:28:08;36.88;;;6.82;;
54123;SDS011;55741;53.252;5.788;2023-12-29T04:30:34;38.97;;;7.93;;
54123;SDS011;55741;53.252;5.788;2023-12-29T04:33:00;35.38;;;6.22;;
54123;SDS011;55741;53.252;5.788;2023-12-29T04:35:26;36.33;;;8.25;;
54123;SDS011;55741;53.252;5.788;2023-12-29T04:37:52;35.55;;;8.00;;
54123;SDS011;55741;53.252;5.788;2023-12-29T04:40:19;32.85;;;7.20;;
54123;SDS011;55741;53.252;5.788;2023-12-29T04:42:45;28.98;;;6.65;;
54123;SDS011;55741;53.252;5.788;2023-12-29T04:45:11;39.10;;;8.18;;
54123;SDS011;55741;53.252;5.788;2023-12-29T04:47:37;35.30;;;6.78;;
54123;SDS011;55741;53.252;5.788;2023-12-29T04:50:04;30.73;;;6.10;;
54123;SDS011;55741;53.252;5.788;2023-12-29T04:52:31;35.50;;;6.20;;
54123;SDS011;55741;53.252;5.788;2023-12-29T04:54:57;37.47;;;6.78;;
54123;SDS011;55741;53.252;5.788;2023-12-29T04:57:23;38.00;;;7.22;;
54123;SDS011;55741;53.252;5.788;2023-12-29T04:59:49;35.75;;;5.55;;
54123;SDS011;55741;53.252;5.788;2023-12-29T05:02:35;33.65;;;7.05;;
54123;SDS011;55741;53.252;5.788;2023-12-29T05:05:01;28.48;;;5.85;;
54123;SDS011;55741;53.252;5.788;2023-12-29T05:07:26;34.17;;;6.70;;
54123;SDS011;55741;53.252;5.788;2023-12-29T05:09:52;27.40;;;5.88;;
54123;SDS011;55741;53.252;5.788;2023-12-29T05:12:18;35.05;;;6.65;;
54123;SDS011;55741;53.252;5.788;2023-12-29T05:14:44;31.17;;;6.45;;
54123;SDS011;55741;53.252;5.788;2023-12-29T05:17:10;43.55;;;9.35;;
54123;SDS011;55741;53.252;5.788;2023-12-29T05:19:35;39.70;;;8.48;;
54123;SDS011;55741;53.252;5.788;2023-12-29T05:22:21;31.65;;;6.65;;
54123;SDS011;55741;53.252;5.788;2023-12-29T05:24:47;39.80;;;6.40;;
54123;SDS011;55741;53.252;5.788;2023-12-29T05:27:13;33.53;;;5.88;;
54123;SDS011;55741;53.252;5.788;2023-12-29T05:29:39;36.38;;;6.45;;
54123;SDS011;55741;53.252;5.788;2023-12-29T05:32:05;35.10;;;6.93;;
54123;SDS011;55741;53.252;5.788;2023-12-29T05:34:31;37.45;;;7.55;;
54123;SDS011;55741;53.252;5.788;2023-12-29T05:36:57;31.65;;;6.63;;
54123;SDS011;55741;53.252;5.788;2023-12-29T05:39:23;38.65;;;6.90;;
54123;SDS011;55741;53.252;5.788;2023-12-29T05:41:49;30.48;;;6.55;;
54123;SDS011;55741;53.252;5.788;2023-12-29T05:44:15;38.13;;;7.75;;
54123;SDS011;55741;53.252;5.788;2023-12-29T05:46:41;43.42;;;8.27;;
54123;SDS011;55741;53.252;5.788;2023-12-29T05:49:11;38.33;;;7.25;;
54123;SDS011;55741;53.252;5.788;2023-12-29T05:51:39;30.17;;;5.25;;
54123;SDS011;55741;53.252;5.788;2023-12-29T05:54:05;42.30;;;6.63;;
54123;SDS011;55741;53.252;5.788;2023-12-29T05:56:51;36.45;;;6.70;;
54123;SDS011;55741;53.252;5.788;2023-12-29T05:59:16;32.60;;;6.63;;
54123;SDS011;55741;53.252;5.788;2023-12-29T06:01:43;31.13;;;6.18;;
54123;SDS011;55741;53.252;5.788;2023-12-29T06:04:08;31.45;;;5.82;;
54123;SDS011;55741;53.252;5.788;2023-12-29T06:06:34;33.78;;;6.03;;
54123;SDS011;55741;53.252;5.788;2023-12-29T06:09:00;45.05;;;7.55;;
54123;SDS011;55741;53.252;5.788;2023-12-29T06:11:26;34.42;;;5.85;;
54123;SDS011;55741;53.252;5.788;2023-12-29T06:13:52;37.42;;;6.97;;
54123;SDS011;55741;53.252;5.788;2023-12-29T06:16:18;32.45;;;5.55;;
54123;SDS011;55741;53.252;5.788;2023-12-29T06:18:45;52.38;;;8.35;;
54123;SDS011;55741;53.252;5.788;2023-12-29T06:21:10;36.05;;;5.60;;
54123;SDS011;55741;53.252;5.788;2023-12-29T06:23:37;24.92;;;5.15;;
54123;SDS011;55741;53.252;5.788;2023-12-29T06:26:02;34.55;;;7.50;;
54123;SDS011;55741;53.252;5.788;2023-12-29T06:28:28;32.15;;;6.28;;
54123;SDS011;55741;53.252;5.788;2023-12-29T06:30:54;42.33;;;6.40;;
54123;SDS011;55741;53.252;5.788;2023-12-29T06:33:20;44.75;;;6.43;;
54123;SDS011;55741;53.252;5.788;2023-12-29T06:35:47;34.45;;;7.72;;
54123;SDS011;55741;53.252;5.788;2023-12-29T06:38:13;40.00;;;6.85;;
54123;SDS011;55741;53.252;5.788;2023-12-29T06:40:39;36.70;;;9.75;;
54123;SDS011;55741;53.252;5.788;2023-12-29T06:43:05;43.60;;;7.43;;
54123;SDS011;55741;53.252;5.788;2023-12-29T06:45:31;34.58;;;6.57;;
54123;SDS011;55741;53.252;5.788;2023-12-29T06:47:57;40.38;;;7.03;;
54123;SDS011;55741;53.252;5.788;2023-12-29T06:50:23;43.88;;;7.25;;
54123;SDS011;55741;53.252;5.788;2023-12-29T06:53:11;42.30;;;7.55;;
54123;SDS011;55741;53.252;5.788;2023-12-29T06:55:37;41.92;;;7.65;;
54123;SDS011;55741;53.252;5.788;2023-12-29T06:58:22;39.70;;;7.45;;
54123;SDS011;55741;53.252;5.788;2023-12-29T07:00:48;47.78;;;7.15;;
54123;SDS011;55741;53.252;5.788;2023-12-29T07:03:14;51.47;;;9.73;;
54123;SDS011;55741;53.252;5.788;2023-12-29T07:05:40;39.17;;;7.03;;
54123;SDS011;55741;53.252;5.788;2023-12-29T07:08:06;34.65;;;6.18;;
54123;SDS011;55741;53.252;5.788;2023-12-29T07:10:32;37.28;;;7.07;;
54123;SDS011;55741;53.252;5.788;2023-12-29T07:12:58;38.22;;;7.68;;
54123;SDS011;55741;53.252;5.788;2023-12-29T07:15:24;39.78;;;7.05;;
54123;SDS011;55741;53.252;5.788;2023-12-29T07:17:49;34.95;;;6.65;;
54123;SDS011;55741;53.252;5.788;2023-12-29T07:20:15;38.80;;;7.05;;
54123;SDS011;55741;53.252;5.788;2023-12-29T07:22:42;42.80;;;8.10;;
54123;SDS011;55741;53.252;5.788;2023-12-29T07:25:08;32.47;;;6.82;;
54123;SDS011;55741;53.252;5.788;2023-12-29T07:27:34;36.78;;;7.22;;
54123;SDS011;55741;53.252;5.788;2023-12-29T07:30:00;31.02;;;6.45;;
54123;SDS011;55741;53.252;5.788;2023-12-29T07:32:26;38.50;;;7.75;;
54123;SDS011;55741;53.252;5.788;2023-12-29T07:34:52;41.28;;;7.00;;
54123;SDS011;55741;53.252;5.788;2023-12-29T07:37:18;38.15;;;6.88;;
54123;SDS011;55741;53.252;5.788;2023-12-29T07:40:04;33.53;;;6.35;;
54123;SDS011;55741;53.252;5.788;2023-12-29T07:42:33;31.30;;;6.00;;
54123;SDS011;55741;53.252;5.788;2023-12-29T07:44:59;31.50;;;6.00;;
54123;SDS011;55741;53.252;5.788;2023-12-29T07:47:44;41.08;;;7.70;;
54123;SDS011;55741;53.252;5.788;2023-12-29T07:50:11;24.35;;;5.60;;
54123;SDS011;55741;53.252;5.788;2023-12-29T07:52:36;30.33;;;5.50;;
54123;SDS011;55741;53.252;5.788;2023-12-29T07:55:04;34.78;;;6.78;;
54123;SDS011;55741;53.252;5.788;2023-12-29T07:57:30;26.42;;;5.68;;
54123;SDS011;55741;53.252;5.788;2023-12-29T07:59:56;28.02;;;4.88;;
54123;SDS011;55741;53.252;5.788;2023-12-29T08:02:22;40.35;;;6.20;;
54123;SDS011;55741;53.252;5.788;2023-12-29T08:04:48;34.78;;;7.05;;
54123;SDS011;55741;53.252;5.788;2023-12-29T08:07:14;24.55;;;5.22;;
54123;SDS011;55741;53.252;5.788;2023-12-29T08:09:40;29.52;;;6.03;;
54123;SDS011;55741;53.252;5.788;2023-12-29T08:12:06;20.98;;;5.07;;
54123;SDS011;55741;53.252;5.788;2023-12-29T08:14:32;31.27;;;5.78;;
54123;SDS011;55741;53.252;5.788;2023-12-29T08:16:58;37.33;;;6.43;;
54123;SDS011;55741;53.252;5.788;2023-12-29T08:19:23;24.00;;;5.75;;
54123;SDS011;55741;53.252;5.788;2023-12-29T08:21:50;28.52;;;4.88;;
54123;SDS011;55741;53.252;5.788;2023-12-29T08:24:16;25.92;;;5.00;;
54123;SDS011;55741;53.252;5.788;2023-12-29T08:26:45;27.67;;;5.60;;
54123;SDS011;55741;53.252;5.788;2023-12-29T08:29:13;38.95;;;6.00;;
54123;SDS011;55741;53.252;5.788;2023-12-29T08:31:39;31.60;;;6.38;;
54123;SDS011;55741;53.252;5.788;2023-12-29T08:34:06;31.42;;;5.50;;
54123;SDS011;55741;53.252;5.788;2023-12-29T08:36:32;23.52;;;5.63;;
54123;SDS011;55741;53.252;5.788;2023-12-29T08:38:58;29.38;;;4.90;;
54123;SDS011;55741;53.252;5.788;2023-12-29T08:41:24;20.73;;;3.53;;
54123;SDS011;55741;53.252;5.788;2023-12-29T08:43:50;22.35;;;4.15;;
54123;SDS011;55741;53.252;5.788;2023-12-29T08:46:16;24.38;;;4.15;;
54123;SDS011;55741;53.252;5.788;2023-12-29T08:48:42;29.17;;;5.60;;
54123;SDS011;55741;53.252;5.788;2023-12-29T08:51:08;28.70;;;5.25;;
54123;SDS011;55741;53.252;5.788;2023-12-29T08:53:33;25.33;;;5.72;;
54123;SDS011;55741;53.252;5.788;2023-12-29T08:56:02;28.83;;;5.22;;
54123;SDS011;55741;53.252;5.788;2023-12-29T08:58:29;30.58;;;5.85;;
54123;SDS011;55741;53.252;5.788;2023-12-29T09:00:55;29.25;;;5.50;;
54123;SDS011;55741;53.252;5.788;2023-12-29T09:03:21;27.40;;;5.47;;
54123;SDS011;55741;53.252;5.788;2023-12-29T09:05:47;37.30;;;5.90;;
54123;SDS011;55741;53.252;5.788;2023-12-29T09:08:12;22.65;;;5.07;;
54123;SDS011;55741;53.252;5.788;2023-12-29T09:10:38;25.27;;;5.18;;
54123;SDS011;55741;53.252;5.788;2023-12-29T09:13:04;27.25;;;6.05;;
54123;SDS011;55741;53.252;5.788;2023-12-29T09:15:30;33.35;;;4.95;;
54123;SDS011;55741;53.252;5.788;2023-12-29T09:18:16;31.38;;;5.80;;
54123;SDS011;55741;53.252;5.788;2023-12-29T09:20:42;37.30;;;6.95;;
54123;SDS011;55741;53.252;5.788;2023-12-29T09:23:08;32.95;;;7.97;;
54123;SDS011;55741;53.252;5.788;2023-12-29T09:25:34;32.17;;;6.68;;
54123;SDS011;55741;53.252;5.788;2023-12-29T09:28:19;36.60;;;5.80;;
54123;SDS011;55741;53.252;5.788;2023-12-29T09:30:45;38.05;;;6.72;;
54123;SDS011;55741;53.252;5.788;2023-12-29T09:33:11;28.80;;;6.45;;
54123;SDS011;55741;53.252;5.788;2023-12-29T09:35:38;33.80;;;5.40;;
54123;SDS011;55741;53.252;5.788;2023-12-29T09:38:24;32.83;;;5.07;;
54123;SDS011;55741;53.252;5.788;2023-12-29T09:40:50;22.23;;;5.68;;
54123;SDS011;55741;53.252;5.788;2023-12-29T09:43:17;24.25;;;4.75;;
54123;SDS011;55741;53.252;5.788;2023-12-29T09:45:44;34.35;;;5.03;;
54123;SDS011;55741;53.252;5.788;2023-12-29T09:48:12;29.85;;;5.82;;
54123;SDS011;55741;53.252;5.788;2023-12-29T09:50:41;32.55;;;5.20;;
54123;SDS011;55741;53.252;5.788;2023-12-29T09:53:08;34.63;;;6.00;;
54123;SDS011;55741;53.252;5.788;2023-12-29T09:55:37;31.50;;;6.63;;
54123;SDS011;55741;53.252;5.788;2023-12-29T09:58:07;29.20;;;5.03;;
54123;SDS011;55741;53.252;5.788;2023-12-29T10:00:35;31.88;;;5.45;;
54123;SDS011;55741;53.252;5.788;2023-12-29T10:03:22;29.05;;;6.43;;
54123;SDS011;55741;53.252;5.788;2023-12-29T10:05:49;29.45;;;5.35;;
54123;SDS011;55741;53.252;5.788;2023-12-29T10:08:20;22.92;;;5.63;;
54123;SDS011;55741;53.252;5.788;2023-12-29T10:10:47;25.15;;;5.05;;
54123;SDS011;55741;53.252;5.788;2023-12-29T10:13:15;24.50;;;4.68;;
54123;SDS011;55741;53.252;5.788;2023-12-29T10:18:54;21.15;;;4.47;;
54123;SDS011;55741;53.252;5.788;2023-12-29T10:22:15;20.08;;;4.95;;
54123;SDS011;55741;53.252;5.788;2023-12-29T10:24:27;24.85;;;5.10;;
54123;SDS011;55741;53.252;5.788;2023-12-29T10:26:53;25.63;;;4.68;;
54123;SDS011;55741;53.252;5.788;2023-12-29T10:29:20;16.88;;;3.72;;
54123;SDS011;55741;53.252;5.788;2023-12-29T10:31:47;18.88;;;5.65;;
54123;SDS011;55741;53.252;5.788;2023-12-29T10:34:25;24.13;;;4.75;;
54123;SDS011;55741;53.252;5.788;2023-12-29T10:36:54;28.70;;;6.35;;
54123;SDS011;55741;53.252;5.788;2023-12-29T10:39:21;23.90;;;5.10;;
54123;SDS011;55741;53.252;5.788;2023-12-29T10:41:48;24.10;;;4.75;;
54123;SDS011;55741;53.252;5.788;2023-12-29T10:44:16;28.48;;;4.95;;
54123;SDS011;55741;53.252;5.788;2023-12-29T10:46:42;23.63;;;5.35;;
54123;SDS011;55741;53.252;5.788;2023-12-29T10:49:09;21.80;;;3.90;;
54123;SDS011;55741;53.252;5.788;2023-12-29T10:51:36;24.20;;;4.13;;
54123;SDS011;55741;53.252;5.788;2023-12-29T10:54:03;24.50;;;5.57;;
54123;SDS011;55741;53.252;5.788;2023-12-29T10:57:02;19.85;;;4.45;;
54123;SDS011;55741;53.252;5.788;2023-12-29T10:59:29;16.67;;;3.55;;
54123;SDS011;55741;53.252;5.788;2023-12-29T11:01:55;24.33;;;4.57;;
54123;SDS011;55741;53.252;5.788;2023-12-29T11:04:22;23.52;;;5.20;;
54123;SDS011;55741;53.252;5.788;2023-12-29T11:06:48;27.08;;;4.50;;
54123;SDS011;55741;53.252;5.788;2023-12-29T11:09:29;25.23;;;5.22;;
54123;SDS011;55741;53.252;5.788;2023-12-29T11:11:59;26.15;;;5.35;;
54123;SDS011;55741;53.252;5.788;2023-12-29T11:14:27;36.53;;;5.57;;
54123;SDS011;55741;53.252;5.788;2023-12-29T11:16:56;24.73;;;4.25;;
54123;SDS011;55741;53.252;5.788;2023-12-29T11:19:24;24.95;;;4.55;;
54123;SDS011;55741;53.252;5.788;2023-12-29T11:21:51;23.80;;;5.13;;
54123;SDS011;55741;53.252;5.788;2023-12-29T11:24:18;20.30;;;4.63;;
54123;SDS011;55741;53.252;5.788;2023-12-29T11:26:44;19.88;;;4.40;;
54123;SDS011;55741;53.252;5.788;2023-12-29T11:29:30;22.15;;;4.90;;
54123;SDS011;55741;53.252;5.788;2023-12-29T11:34:56;21.85;;;3.90;;
54123;SDS011;55741;53.252;5.788;2023-12-29T11:37:29;25.23;;;5.07;;
54123;SDS011;55741;53.252;5.788;2023-12-29T11:42:52;19.08;;;4.57;;
54123;SDS011;55741;53.252;5.788;2023-12-29T11:45:30;21.20;;;4.47;;
54123;SDS011;55741;53.252;5.788;2023-12-29T11:47:59;22.42;;;4.60;;
54123;SDS011;55741;53.252;5.788;2023-12-29T11:50:34;20.15;;;4.20;;
54123;SDS011;55741;53.252;5.788;2023-12-29T11:53:02;22.85;;;5.75;;
54123;SDS011;55741;53.252;5.788;2023-12-29T11:55:35;18.58;;;4.50;;
54123;SDS011;55741;53.252;5.788;2023-12-29T11:58:02;20.15;;;3.95;;
54123;SDS011;55741;53.252;5.788;2023-12-29T12:00:43;22.67;;;4.47;;
54123;SDS011;55741;53.252;5.788;2023-12-29T12:05:51;20.38;;;4.07;;
54123;SDS011;55741;53.252;5.788;2023-12-29T12:13:55;24.30;;;4.43;;
54123;SDS011;55741;53.252;5.788;2023-12-29T12:19:13;21.90;;;4.72;;
54123;SDS011;55741;53.252;5.788;2023-12-29T12:21:39;23.98;;;3.72;;
54123;SDS011;55741;53.252;5.788;2023-12-29T12:24:06;21.30;;;4.85;;
54123;SDS011;55741;53.252;5.788;2023-12-29T12:26:33;21.92;;;4.88;;
54123;SDS011;55741;53.252;5.788;2023-12-29T12:29:19;19.33;;;4.35;;
54123;SDS011;55741;53.252;5.788;2023-12-29T12:31:52;21.00;;;3.95;;
54123;SDS011;55741;53.252;5.788;2023-12-29T12:34:19;23.50;;;4.43;;
54123;SDS011;55741;53.252;5.788;2023-12-29T12:36:48;29.20;;;6.38;;
54123;SDS011;55741;53.252;5.788;2023-12-29T12:39:16;17.15;;;4.28;;
54123;SDS011;55741;53.252;5.788;2023-12-29T12:41:42;22.92;;;5.10;;
54123;SDS011;55741;53.252;5.788;2023-12-29T12:44:12;29.85;;;4.90;;
54123;SDS011;55741;53.252;5.788;2023-12-29T12:46:59;25.95;;;6.97;;
54123;SDS011;55741;53.252;5.788;2023-12-29T12:49:31;25.27;;;4.50;;
54123;SDS011;55741;53.252;5.788;2023-12-29T12:51:58;26.20;;;4.82;;
54123;SDS011;55741;53.252;5.788;2023-12-29T12:54:24;26.27;;;5.07;;
54123;SDS011;55741;53.252;5.788;2023-12-29T12:56:50;28.38;;;5.30;;
54123;SDS011;55741;53.252;5.788;2023-12-29T12:59:16;30.20;;;5.35;;
54123;SDS011;55741;53.252;5.788;2023-12-29T13:01:44;23.98;;;4.68;;
54123;SDS011;55741;53.252;5.788;2023-12-29T13:04:10;36.97;;;6.45;;
54123;SDS011;55741;53.252;5.788;2023-12-29T13:06:41;28.35;;;5.43;;
54123;SDS011;55741;53.252;5.788;2023-12-29T13:09:28;28.67;;;6.32;;
54123;SDS011;55741;53.252;5.788;2023-12-29T13:12:07;28.85;;;5.05;;
54123;SDS011;55741;53.252;5.788;2023-12-29T13:14:37;34.92;;;5.22;;
54123;SDS011;55741;53.252;5.788;2023-12-29T13:17:09;30.13;;;4.50;;
54123;SDS011;55741;53.252;5.788;2023-12-29T13:19:39;28.85;;;5.05;;
54123;SDS011;55741;53.252;5.788;2023-12-29T13:22:07;27.52;;;5.15;;
54123;SDS011;55741;53.252;5.788;2023-12-29T13:24:34;26.65;;;4.25;;
54123;SDS011;55741;53.252;5.788;2023-12-29T13:27:07;26.95;;;4.78;;
54123;SDS011;55741;53.252;5.788;2023-12-29T13:29:35;23.50;;;4.85;;
54123;SDS011;55741;53.252;5.788;2023-12-29T13:32:14;30.83;;;4.97;;
54123;SDS011;55741;53.252;5.788;2023-12-29T13:37:33;26.15;;;5.07;;
54123;SDS011;55741;53.252;5.788;2023-12-29T13:40:14;29.02;;;6.35;;
54123;SDS011;55741;53.252;5.788;2023-12-29T13:42:45;21.27;;;4.63;;
54123;SDS011;55741;53.252;5.788;2023-12-29T13:45:14;28.08;;;5.13;;
54123;SDS011;55741;53.252;5.788;2023-12-29T13:47:41;34.90;;;5.35;;
54123;SDS011;55741;53.252;5.788;2023-12-29T13:50:08;33.20;;;5.90;;
54123;SDS011;55741;53.252;5.788;2023-12-29T13:52:38;29.30;;;4.85;;
54123;SDS011;55741;53.252;5.788;2023-12-29T13:55:04;27.35;;;4.63;;
54123;SDS011;55741;53.252;5.788;2023-12-29T13:57:35;33.42;;;5.30;;
54123;SDS011;55741;53.252;5.788;2023-12-29T14:03:01;34.42;;;5.18;;
54123;SDS011;55741;53.252;5.788;2023-12-29T14:08:39;21.80;;;5.03;;
54123;SDS011;55741;53.252;5.788;2023-12-29T14:11:10;26.90;;;4.40;;
54123;SDS011;55741;53.252;5.788;2023-12-29T14:13:56;24.13;;;4.13;;
54123;SDS011;55741;53.252;5.788;2023-12-29T14:16:22;23.65;;;5.25;;
54123;SDS011;55741;53.252;5.788;2023-12-29T14:18:54;28.08;;;5.70;;
54123;SDS011;55741;53.252;5.788;2023-12-29T14:21:29;22.13;;;4.75;;
54123;SDS011;55741;53.252;5.788;2023-12-29T14:24:09;28.65;;;5.05;;
54123;SDS011;55741;53.252;5.788;2023-12-29T14:26:37;20.42;;;3.85;;
54123;SDS011;55741;53.252;5.788;2023-12-29T14:29:05;24.77;;;5.50;;
54123;SDS011;55741;53.252;5.788;2023-12-29T14:31:35;20.98;;;3.67;;
54123;SDS011;55741;53.252;5.788;2023-12-29T14:34:06;29.13;;;4.78;;
54123;SDS011;55741;53.252;5.788;2023-12-29T14:36:32;20.50;;;4.00;;
54123;SDS011;55741;53.252;5.788;2023-12-29T14:38:59;24.80;;;4.95;;
54123;SDS011;55741;53.252;5.788;2023-12-29T14:41:25;19.88;;;4.50;;
54123;SDS011;55741;53.252;5.788;2023-12-29T14:43:51;27.23;;;4.60;;
54123;SDS011;55741;53.252;5.788;2023-12-29T14:46:18;26.23;;;5.00;;
54123;SDS011;55741;53.252;5.788;2023-12-29T14:48:44;20.83;;;4.05;;
54123;SDS011;55741;53.252;5.788;2023-12-29T14:51:10;25.50;;;5.18;;
54123;SDS011;55741;53.252;5.788;2023-12-29T14:53:36;28.08;;;5.18;;
54123;SDS011;55741;53.252;5.788;2023-12-29T14:56:03;22.02;;;4.07;;
54123;SDS011;55741;53.252;5.788;2023-12-29T14:58:29;27.23;;;4.38;;
54123;SDS011;55741;53.252;5.788;2023-12-29T15:00:57;36.83;;;6.13;;
54123;SDS011;55741;53.252;5.788;2023-12-29T15:03:25;21.98;;;3.83;;
54123;SDS011;55741;53.252;5.788;2023-12-29T15:05:51;23.08;;;4.28;;
54123;SDS011;55741;53.252;5.788;2023-12-29T15:08:17;26.15;;;4.97;;
54123;SDS011;55741;53.252;5.788;2023-12-29T15:10:43;19.40;;;4.15;;
54123;SDS011;55741;53.252;5.788;2023-12-29T15:13:12;25.85;;;3.85;;